Time;durP1;ratioP1;P1;durP2;ratioP2;P2;SDS_P1;SDS_P2;PMS_P1;PMS_P2;Temp;Humidity;BMP_temperature;BMP_pressure;BME280_temperature;BME280_humidity;BME280_pressure;Samples;Min_cycle;Max_cycle;Signal;HPM_P1;HPM_P2
2021/07/19 00:00:10;;;;;;;7.20;5.90;;;;;;;;;;3550347;39;105254;-61
2021/07/19 00:02:38;;;;;;;8.45;6.80;;;;;;;;;;3549798;39;106936;-61
2021/07/19 00:05:08;;;;;;;7.28;6.57;;;;;;;;;;3549962;39;107490;-62
2021/07/19 00:07:35;;;;;;;7.72;6.72;;;;;;;;;;3549544;39;106016;-61
2021/07/19 00:10:05;;;;;;;7.50;6.22;;;;;;;;;;3550235;39;105205;-62
2021/07/19 00:12:32;;;;;;;8.40;6.60;;;;;;;;;;3549693;39;106690;-61
2021/07/19 00:14:59;;;;;;;6.88;6.18;;;;;;;;;;3549944;39;107521;-63
2021/07/19 00:17:26;;;;;;;7.10;6.40;;;;;;;;;;3549847;39;105605;-61
2021/07/19 00:19:53;;;;;;;7.72;6.95;;;;;;;;;;3550249;39;105593;-61
2021/07/19 00:22:21;;;;;;;7.43;6.60;;;;;;;;;;3549659;39;107039;-62
2021/07/19 00:24:48;;;;;;;9.15;6.90;;;;;;;;;;3549504;39;107453;-63
2021/07/19 00:27:15;;;;;;;8.82;6.70;;;;;;;;;;3549734;39;105156;-62
2021/07/19 00:29:43;;;;;;;7.68;6.88;;;;;;;;;;3549886;39;105184;-60
2021/07/19 00:32:10;;;;;;;8.88;6.72;;;;;;;;;;3549290;39;106852;-61
2021/07/19 00:34:37;;;;;;;9.13;7.53;;;;;;;;;;3549592;39;107545;-62
2021/07/19 00:37:05;;;;;;;9.13;7.10;;;;;;;;;;3550210;39;105295;-62
2021/07/19 00:39:32;;;;;;;7.57;6.75;;;;;;;;;;3549611;39;105294;-63
2021/07/19 00:41:59;;;;;;;7.90;7.10;;;;;;;;;;3549883;39;106913;-61
2021/07/19 00:44:26;;;;;;;8.65;7.85;;;;;;;;;;3550094;39;107418;-60
2021/07/19 00:46:55;;;;;;;7.95;7.15;;;;;;;;;;3549844;39;105216;-62
2021/07/19 00:49:23;;;;;;;8.93;7.10;;;;;;;;;;3550039;39;105191;-61
2021/07/19 00:51:51;;;;;;;7.90;7.10;;;;;;;;;;3549591;39;107201;-62
2021/07/19 00:54:20;;;;;;;8.40;7.20;;;;;;;;;;3549900;39;107531;-62
2021/07/19 00:56:49;;;;;;;9.32;7.40;;;;;;;;;;3549853;39;105348;-60
2021/07/19 00:59:21;;;;;;;8.90;6.85;;;;;;;;;;3549868;39;105238;-62
2021/07/19 01:01:50;;;;;;;7.75;6.95;;;;;;;;;;3549496;39;106982;-61
2021/07/19 01:04:18;;;;;;;8.60;7.35;;;;;;;;;;3549404;39;107528;-61
2021/07/19 01:06:48;;;;;;;8.38;7.47;;;;;;;;;;3539998;39;105191;-61
2021/07/19 01:09:15;;;;;;;9.77;7.75;;;;;;;;;;3546819;39;105560;-60
2021/07/19 01:11:42;;;;;;;8.75;7.50;;;;;;;;;;3549128;39;107595;-63
2021/07/19 01:14:09;;;;;;;8.95;7.05;;;;;;;;;;3549201;39;107443;-62
2021/07/19 01:16:36;;;;;;;10.40;7.45;;;;;;;;;;3549379;39;105640;-60
2021/07/19 01:19:03;;;;;;;9.95;7.22;;;;;;;;;;3549470;39;105499;-60
2021/07/19 01:22:09;;;;;;;7.63;6.82;;;;;;;;;;3549790;39;106750;-61
2021/07/19 01:25:00;;;;;;;8.27;7.00;;;;;;;;;;3540376;39;107469;-61
2021/07/19 01:27:58;;;;;;;8.73;7.10;;;;;;;;;;3549783;39;105398;-61
2021/07/19 01:30:27;;;;;;;8.98;7.25;;;;;;;;;;3549845;39;105700;-60
2021/07/19 01:32:57;;;;;;;9.70;7.35;;;;;;;;;;3549432;39;107098;-59
2021/07/19 01:35:25;;;;;;;8.30;7.23;;;;;;;;;;3549493;39;107483;-60
2021/07/19 01:37:53;;;;;;;9.15;7.22;;;;;;;;;;3549300;39;105849;-63
2021/07/19 01:40:21;;;;;;;9.60;7.47;;;;;;;;;;3549442;39;105340;-61
2021/07/19 01:42:49;;;;;;;8.05;7.20;;;;;;;;;;3549133;39;106866;-62
2021/07/19 01:45:16;;;;;;;8.75;7.03;;;;;;;;;;3549674;39;107425;-62
2021/07/19 01:47:43;;;;;;;9.43;7.70;;;;;;;;;;3549400;39;105481;-61
2021/07/19 01:50:11;;;;;;;8.57;7.68;;;;;;;;;;3549341;39;105402;-62
2021/07/19 01:52:39;;;;;;;9.77;8.00;;;;;;;;;;3549148;39;106771;-62
2021/07/19 01:55:06;;;;;;;9.63;7.47;;;;;;;;;;3549449;39;107758;-62
2021/07/19 01:57:34;;;;;;;8.73;7.70;;;;;;;;;;3549218;39;105517;-63
2021/07/19 02:00:04;;;;;;;10.05;7.78;;;;;;;;;;3549554;39;105143;-62
2021/07/19 02:02:33;;;;;;;9.18;7.60;;;;;;;;;;3549385;39;106853;-62
2021/07/19 02:05:00;;;;;;;8.27;7.35;;;;;;;;;;3549309;39;107556;-60
2021/07/19 02:07:28;;;;;;;9.07;7.50;;;;;;;;;;3548541;39;106724;-62
2021/07/19 02:09:55;;;;;;;9.07;7.75;;;;;;;;;;3549014;39;105491;-61
2021/07/19 02:12:22;;;;;;;8.07;7.28;;;;;;;;;;3549075;39;107120;-63
2021/07/19 02:14:50;;;;;;;9.05;7.70;;;;;;;;;;3548962;39;107535;-63
2021/07/19 02:17:19;;;;;;;9.55;7.53;;;;;;;;;;3549130;39;105797;-63
2021/07/19 02:19:48;;;;;;;9.05;7.75;;;;;;;;;;3549098;39;105225;-61
2021/07/19 02:22:18;;;;;;;9.98;7.78;;;;;;;;;;3549432;39;106764;-62
2021/07/19 02:24:47;;;;;;;9.02;7.85;;;;;;;;;;3548976;39;108190;-62
2021/07/19 02:27:15;;;;;;;9.27;8.07;;;;;;;;;;3549589;39;105400;-62
2021/07/19 02:29:43;;;;;;;10.93;7.90;;;;;;;;;;3549325;39;105136;-61
2021/07/19 02:32:12;;;;;;;8.63;7.60;;;;;;;;;;3549053;39;106826;-63
2021/07/19 02:34:44;;;;;;;9.40;8.23;;;;;;;;;;3548852;39;107588;-62
2021/07/19 02:37:12;;;;;;;8.77;7.53;;;;;;;;;;3549150;39;105388;-62
2021/07/19 02:39:40;;;;;;;8.98;7.85;;;;;;;;;;3548779;39;106394;-62
2021/07/19 02:42:07;;;;;;;9.73;8.38;;;;;;;;;;3549092;39;106766;-61
2021/07/19 02:44:36;;;;;;;9.27;8.07;;;;;;;;;;3548179;39;107533;-61
2021/07/19 02:47:04;;;;;;;9.95;8.15;;;;;;;;;;3549249;39;105311;-61
2021/07/19 02:49:33;;;;;;;8.65;7.75;;;;;;;;;;3548588;39;105523;-61
2021/07/19 02:52:01;;;;;;;8.52;7.63;;;;;;;;;;3548749;39;107019;-61
2021/07/19 02:54:28;;;;;;;8.70;7.80;;;;;;;;;;3549096;39;107038;-62
2021/07/19 02:56:57;;;;;;;9.98;8.25;;;;;;;;;;3550182;39;105262;-62
2021/07/19 02:59:26;;;;;;;9.35;8.05;;;;;;;;;;3549937;39;107507;-60
2021/07/19 03:01:56;;;;;;;9.07;7.97;;;;;;;;;;3550027;39;106841;-62
2021/07/19 03:04:26;;;;;;;9.60;8.60;;;;;;;;;;3549144;39;107650;-61
2021/07/19 03:06:57;;;;;;;9.15;7.80;;;;;;;;;;3549486;39;105570;-61
2021/07/19 03:09:30;;;;;;;8.70;7.53;;;;;;;;;;3549641;39;105423;-62
2021/07/19 03:11:57;;;;;;;9.52;8.23;;;;;;;;;;3549777;39;106777;-62
2021/07/19 03:14:25;;;;;;;8.75;7.85;;;;;;;;;;3549601;39;107529;-62
2021/07/19 03:16:55;;;;;;;9.32;7.70;;;;;;;;;;3549206;39;105472;-63
2021/07/19 03:19:23;;;;;;;9.23;8.32;;;;;;;;;;3549955;39;105677;-61
2021/07/19 03:21:54;;;;;;;9.98;8.27;;;;;;;;;;3549267;39;106882;-62
2021/07/19 03:24:22;;;;;;;9.63;7.97;;;;;;;;;;3545033;39;107517;-62
2021/07/19 03:26:50;;;;;;;9.82;7.72;;;;;;;;;;3549973;39;105254;-63
2021/07/19 03:29:18;;;;;;;10.13;8.02;;;;;;;;;;3549856;39;105359;-61
2021/07/19 03:31:45;;;;;;;9.32;7.95;;;;;;;;;;3550207;39;107011;-62
2021/07/19 03:34:14;;;;;;;9.32;7.88;;;;;;;;;;3549874;39;107458;-62
2021/07/19 03:36:41;;;;;;;10.27;8.48;;;;;;;;;;3550456;39;105274;-63
2021/07/19 03:39:09;;;;;;;8.85;7.63;;;;;;;;;;3549874;39;105306;-62
2021/07/19 03:41:37;;;;;;;9.13;7.90;;;;;;;;;;3549982;39;106841;-63
2021/07/19 03:44:04;;;;;;;9.10;7.80;;;;;;;;;;3549786;39;107518;-63
2021/07/19 03:46:32;;;;;;;9.52;7.90;;;;;;;;;;3549986;39;105454;-61
2021/07/19 03:49:00;;;;;;;8.15;7.10;;;;;;;;;;3550020;39;105336;-63
2021/07/19 03:51:28;;;;;;;9.02;8.13;;;;;;;;;;3549638;39;107848;-61
2021/07/19 03:53:55;;;;;;;8.90;7.65;;;;;;;;;;3550023;39;107492;-62
2021/07/19 03:56:26;;;;;;;8.10;7.10;;;;;;;;;;3549716;39;105461;-64
2021/07/19 03:58:56;;;;;;;8.57;7.68;;;;;;;;;;3550076;39;105106;-63
2021/07/19 04:01:24;;;;;;;8.80;7.90;;;;;;;;;;3549536;39;106754;-62
2021/07/19 04:03:54;;;;;;;8.40;7.40;;;;;;;;;;3550050;39;107657;-63
2021/07/19 04:06:23;;;;;;;9.35;8.35;;;;;;;;;;3549812;39;105442;-61
2021/07/19 04:08:51;;;;;;;10.82;7.97;;;;;;;;;;3549206;39;105590;-61
2021/07/19 04:11:19;;;;;;;8.80;7.53;;;;;;;;;;3549382;39;107126;-63
2021/07/19 04:13:46;;;;;;;7.97;7.18;;;;;;;;;;3549894;39;107827;-63
2021/07/19 04:16:14;;;;;;;8.50;7.47;;;;;;;;;;3550039;39;105451;-61
2021/07/19 04:18:42;;;;;;;8.85;7.65;;;;;;;;;;3549987;39;105242;-62
2021/07/19 04:21:11;;;;;;;8.75;7.55;;;;;;;;;;3550009;39;107034;-63
2021/07/19 04:23:38;;;;;;;8.75;7.60;;;;;;;;;;3549649;39;107940;-62
2021/07/19 04:26:06;;;;;;;8.45;7.60;;;;;;;;;;3549643;39;105746;-62
2021/07/19 04:28:34;;;;;;;9.75;7.90;;;;;;;;;;3549737;39;105686;-61
2021/07/19 04:31:01;;;;;;;9.20;7.88;;;;;;;;;;3549556;39;107179;-63
2021/07/19 04:33:29;;;;;;;8.38;7.43;;;;;;;;;;3549362;39;107563;-61
2021/07/19 04:35:56;;;;;;;8.77;7.88;;;;;;;;;;3549724;39;105285;-62
2021/07/19 04:38:24;;;;;;;9.20;7.68;;;;;;;;;;3550123;39;105552;-63
2021/07/19 04:40:57;;;;;;;9.00;7.95;;;;;;;;;;3549571;39;106840;-62
2021/07/19 04:43:26;;;;;;;9.25;7.28;;;;;;;;;;3549773;39;107474;-61
2021/07/19 04:45:53;;;;;;;8.18;7.38;;;;;;;;;;3549940;39;105586;-60
2021/07/19 04:48:20;;;;;;;8.70;7.80;;;;;;;;;;3549766;39;105510;-61
2021/07/19 04:50:48;;;;;;;9.77;7.90;;;;;;;;;;3555346;39;107002;-62
2021/07/19 04:53:16;;;;;;;8.57;7.68;;;;;;;;;;3549970;39;107520;-61
2021/07/19 04:55:49;;;;;;;8.40;7.55;;;;;;;;;;3549468;39;105220;-62
2021/07/19 04:58:21;;;;;;;8.98;7.75;;;;;;;;;;3549141;39;105429;-62
2021/07/19 05:01:03;;;;;;;8.45;7.60;;;;;;;;;;3549433;39;106710;-60
2021/07/19 05:03:35;;;;;;;8.93;8.02;;;;;;;;;;3549752;39;107751;-62
2021/07/19 05:06:05;;;;;;;9.23;7.45;;;;;;;;;;3549930;39;105244;-62
2021/07/19 05:08:32;;;;;;;8.63;7.53;;;;;;;;;;3549577;39;105406;-61
2021/07/19 05:11:01;;;;;;;9.70;7.70;;;;;;;;;;3549598;39;106823;-62
2021/07/19 05:13:28;;;;;;;8.65;7.75;;;;;;;;;;3549978;39;107442;-63
2021/07/19 05:15:55;;;;;;;9.07;7.63;;;;;;;;;;3549690;39;105572;-61
2021/07/19 05:18:24;;;;;;;8.13;7.32;;;;;;;;;;3549327;39;105173;-62
2021/07/19 05:20:52;;;;;;;9.38;7.07;;;;;;;;;;3549628;39;106956;-59
2021/07/19 05:23:23;;;;;;;8.43;7.63;;;;;;;;;;3549670;39;107489;-62
2021/07/19 05:25:51;;;;;;;8.80;7.40;;;;;;;;;;3549792;39;105177;-61
2021/07/19 05:28:18;;;;;;;7.70;6.85;;;;;;;;;;3549610;39;105300;-61
2021/07/19 05:30:50;;;;;;;7.38;6.68;;;;;;;;;;3549871;39;106871;-63
2021/07/19 05:33:19;;;;;;;7.22;6.53;;;;;;;;;;3549702;39;107413;-61
2021/07/19 05:35:46;;;;;;;8.15;7.35;;;;;;;;;;3549598;39;105315;-61
2021/07/19 05:38:14;;;;;;;7.50;6.78;;;;;;;;;;3549908;39;105143;-63
2021/07/19 05:40:41;;;;;;;8.23;6.88;;;;;;;;;;3549442;39;107175;-63
2021/07/19 05:43:08;;;;;;;8.45;7.22;;;;;;;;;;3548247;39;107513;-61
2021/07/19 05:45:37;;;;;;;8.10;7.20;;;;;;;;;;3549672;39;105218;-62
2021/07/19 05:48:05;;;;;;;7.18;6.47;;;;;;;;;;3549591;39;105554;-62
2021/07/19 05:50:32;;;;;;;7.32;6.63;;;;;;;;;;3549643;39;106854;-62
2021/07/19 05:52:59;;;;;;;8.35;6.70;;;;;;;;;;3549603;39;107446;-62
2021/07/19 05:55:27;;;;;;;7.13;6.20;;;;;;;;;;3549773;39;105182;-64
2021/07/19 05:58:00;;;;;;;7.93;6.75;;;;;;;;;;3549257;39;105467;-62
2021/07/19 06:00:27;;;;;;;7.75;6.82;;;;;;;;;;3549401;39;106896;-61
2021/07/19 06:02:54;;;;;;;6.90;6.20;;;;;;;;;;3549315;39;107650;-62
2021/07/19 06:05:21;;;;;;;6.70;6.00;;;;;;;;;;3549321;39;105485;-62
2021/07/19 06:07:48;;;;;;;8.13;6.95;;;;;;;;;;3549191;39;105236;-61
2021/07/19 06:10:16;;;;;;;7.30;5.97;;;;;;;;;;3549406;39;107433;-61
2021/07/19 06:12:43;;;;;;;6.90;6.20;;;;;;;;;;3549071;39;107452;-62
2021/07/19 06:15:11;;;;;;;6.95;6.13;;;;;;;;;;3549321;39;105302;-62
2021/07/19 06:17:39;;;;;;;6.50;5.75;;;;;;;;;;3549574;39;105230;-62
2021/07/19 06:20:16;;;;;;;8.07;6.35;;;;;;;;;;3549139;39;106856;-62
2021/07/19 06:22:47;;;;;;;6.30;5.45;;;;;;;;;;3548966;39;107603;-63
2021/07/19 06:25:17;;;;;;;6.28;5.43;;;;;;;;;;3549280;39;105409;-62
2021/07/19 06:27:45;;;;;;;6.32;5.72;;;;;;;;;;3549149;39;105367;-62
2021/07/19 06:30:14;;;;;;;6.50;5.60;;;;;;;;;;3549811;39;107211;-61
2021/07/19 06:32:42;;;;;;;7.57;6.32;;;;;;;;;;3550244;39;107422;-62
2021/07/19 06:35:10;;;;;;;6.85;6.15;;;;;;;;;;3550363;39;105399;-60
2021/07/19 06:37:36;;;;;;;7.88;5.53;;;;;;;;;;3550947;39;105343;-61
2021/07/19 06:40:05;;;;;;;6.20;5.70;;;;;;;;;;3550179;39;109317;-61
2021/07/19 06:42:32;;;;;;;6.53;6.03;;;;;;;;;;3550429;39;107272;-62
2021/07/19 06:45:05;;;;;;;7.50;6.05;;;;;;;;;;3550659;39;105328;-61
2021/07/19 06:47:32;;;;;;;6.93;6.28;;;;;;;;;;3551117;39;105141;-62
2021/07/19 06:49:59;;;;;;;6.95;5.97;;;;;;;;;;3550647;39;106807;-60
2021/07/19 06:52:26;;;;;;;6.68;6.10;;;;;;;;;;3550199;39;107929;-60
2021/07/19 06:54:53;;;;;;;7.18;6.57;;;;;;;;;;3550778;39;105366;-60
2021/07/19 06:57:21;;;;;;;8.23;7.43;;;;;;;;;;3550268;39;105758;-61
2021/07/19 06:59:49;;;;;;;9.70;8.75;;;;;;;;;;3550592;39;107208;-61
2021/07/19 07:02:16;;;;;;;10.05;9.35;;;;;;;;;;3550443;39;107416;-62
2021/07/19 07:04:44;;;;;;;8.80;8.00;;;;;;;;;;3550758;39;105232;-62
2021/07/19 07:07:11;;;;;;;8.65;7.95;;;;;;;;;;3550423;39;105499;-62
2021/07/19 07:09:38;;;;;;;9.23;8.52;;;;;;;;;;3550170;39;107231;-62
2021/07/19 07:12:19;;;;;;;;;;;;;;;;;;3550880;39;107404;-61
2021/07/19 07:14:46;;;;;;;12.95;11.57;;;;;;;;;;3549636;39;131255;-63
2021/07/19 07:17:13;;;;;;;6.55;5.82;;;;;;;;;;3550514;39;105277;-61
2021/07/19 07:19:39;;;;;;;8.18;6.22;;;;;;;;;;3550277;39;106604;-62
2021/07/19 07:22:06;;;;;;;8.07;7.25;;;;;;;;;;3549079;39;107464;-61
2021/07/19 07:24:34;;;;;;;8.80;7.00;;;;;;;;;;3550617;39;105253;-62
2021/07/19 07:27:02;;;;;;;7.07;6.38;;;;;;;;;;3550364;39;105432;-61
2021/07/19 07:29:32;;;;;;;8.07;6.45;;;;;;;;;;3550041;39;106877;-62
2021/07/19 07:31:58;;;;;;;7.72;6.93;;;;;;;;;;3550193;39;107575;-61
2021/07/19 07:34:26;;;;;;;7.60;6.82;;;;;;;;;;3550257;39;105248;-62
2021/07/19 07:36:53;;;;;;;7.78;6.85;;;;;;;;;;3550373;39;105214;-61
2021/07/19 07:39:20;;;;;;;8.65;7.68;;;;;;;;;;3550318;39;106806;-62
2021/07/19 07:41:47;;;;;;;8.25;7.40;;;;;;;;;;3549651;39;107487;-63
2021/07/19 07:44:14;;;;;;;10.50;7.82;;;;;;;;;;3550246;39;105361;-63
2021/07/19 07:46:43;;;;;;;9.15;7.30;;;;;;;;;;3550701;39;105355;-62
2021/07/19 07:49:10;;;;;;;7.53;6.30;;;;;;;;;;3550121;39;107301;-64
2021/07/19 07:51:37;;;;;;;8.63;6.90;;;;;;;;;;3550116;39;107652;-62
2021/07/19 07:54:04;;;;;;;8.30;6.72;;;;;;;;;;3550335;39;105256;-62
2021/07/19 07:56:31;;;;;;;8.18;7.38;;;;;;;;;;3550528;39;105574;-61
2021/07/19 07:59:18;;;;;;;9.98;7.70;;;;;;;;;;3549944;39;108969;-61
2021/07/19 08:01:45;;;;;;;9.27;7.20;;;;;;;;;;3549967;39;107446;-60
2021/07/19 08:04:12;;;;;;;11.43;8.02;;;;;;;;;;3550088;39;105413;-61
2021/07/19 08:06:39;;;;;;;10.20;6.93;;;;;;;;;;3549183;39;105292;-62
2021/07/19 08:09:06;;;;;;;11.15;7.88;;;;;;;;;;3548951;39;106810;-61
2021/07/19 08:11:34;;;;;;;12.85;8.10;;;;;;;;;;3548670;39;107015;-62
2021/07/19 08:14:01;;;;;;;9.95;7.43;;;;;;;;;;3544470;39;105990;-65
2021/07/19 08:16:28;;;;;;;11.13;8.10;;;;;;;;;;3549236;39;105419;-62
2021/07/19 08:19:01;;;;;;;12.32;8.52;;;;;;;;;;3548205;39;107217;-63
2021/07/19 08:21:39;;;;;;;10.13;8.05;;;;;;;;;;3547006;39;107386;-62
2021/07/19 08:24:07;;;;;;;10.80;8.00;;;;;;;;;;3547683;39;105880;-62
2021/07/19 08:26:35;;;;;;;10.05;8.43;;;;;;;;;;3549092;39;105352;-61
2021/07/19 08:29:07;;;;;;;10.98;8.63;;;;;;;;;;3547902;39;106008;-63
2021/07/19 08:31:39;;;;;;;11.90;8.55;;;;;;;;;;3548273;39;106534;-62
2021/07/19 08:34:06;;;;;;;11.65;8.43;;;;;;;;;;3548957;39;106257;-62
2021/07/19 08:36:33;;;;;;;12.75;8.48;;;;;;;;;;3549766;39;105412;-64
2021/07/19 08:39:00;;;;;;;12.95;8.52;;;;;;;;;;3549640;39;106841;-70
2021/07/19 08:41:27;;;;;;;13.02;9.77;;;;;;;;;;3549531;39;107563;-65
2021/07/19 08:43:57;;;;;;;11.43;9.02;;;;;;;;;;3549859;39;105301;-66
2021/07/19 08:46:24;;;;;;;;;;;;;;;;;;3550371;39;105460;-64
2021/07/19 08:48:52;;;;;;;15.60;9.43;;;;;;;;;;3549086;39;137066;-63
2021/07/19 08:51:20;;;;;;;14.68;9.32;;;;;;;;;;3549903;39;107528;-63
2021/07/19 08:53:48;;;;;;;15.88;11.10;;;;;;;;;;3549690;39;105158;-64
2021/07/19 08:56:15;;;;;;;12.88;10.10;;;;;;;;;;3550018;39;105155;-65
2021/07/19 08:58:44;;;;;;;15.50;10.95;;;;;;;;;;3549602;39;106873;-64
2021/07/19 09:01:12;;;;;;;15.77;10.68;;;;;;;;;;3549592;39;107433;-67
2021/07/19 09:03:39;;;;;;;17.13;11.52;;;;;;;;;;3549861;39;105193;-59
2021/07/19 09:06:11;;;;;;;16.88;11.13;;;;;;;;;;3549985;39;105671;-64
2021/07/19 09:08:54;;;;;;;17.27;10.93;;;;;;;;;;3549647;39;107018;-63
2021/07/19 09:11:25;;;;;;;17.02;11.18;;;;;;;;;;3549645;39;108475;-62
2021/07/19 09:14:00;;;;;;;18.67;11.52;;;;;;;;;;3550110;39;105600;-61
2021/07/19 09:16:45;;;;;;;20.10;12.18;;;;;;;;;;3549896;39;105336;-63
2021/07/19 09:19:17;;;;;;;19.15;11.50;;;;;;;;;;3548605;39;107607;-60
2021/07/19 09:21:46;;;;;;;24.30;12.23;;;;;;;;;;3547882;39;107487;-61
2021/07/19 09:24:20;;;;;;;24.83;14.10;;;;;;;;;;3549135;39;105379;-65
2021/07/19 09:26:49;;;;;;;22.30;14.20;;;;;;;;;;3549282;39;105383;-63
2021/07/19 09:29:18;;;;;;;23.45;12.63;;;;;;;;;;3548846;39;106854;-63
2021/07/19 09:31:57;;;;;;;21.13;12.70;;;;;;;;;;3547434;39;107455;-67
2021/07/19 09:34:27;;;;;;;23.08;13.50;;;;;;;;;;3546711;39;105519;-63
2021/07/19 09:37:03;;;;;;;22.23;13.67;;;;;;;;;;3547411;39;105912;-63
2021/07/19 09:39:52;;;;;;;21.20;13.45;;;;;;;;;;3548157;39;107549;-68
2021/07/19 09:42:22;;;;;;;21.02;12.45;;;;;;;;;;3548571;39;107446;-62
2021/07/19 09:44:55;;;;;;;22.67;12.40;;;;;;;;;;3547496;39;106660;-63
2021/07/19 09:47:36;;;;;;;25.23;12.32;;;;;;;;;;3545944;39;105558;-65
2021/07/19 09:50:17;;;;;;;21.35;12.50;;;;;;;;;;3547610;39;106797;-66
2021/07/19 09:52:45;;;;;;;18.65;12.00;;;;;;;;;;3546948;39;108954;-65
2021/07/19 09:55:23;;;;;;;21.65;13.30;;;;;;;;;;3548974;39;105351;-67
2021/07/19 09:57:57;;;;;;;24.33;13.50;;;;;;;;;;3548021;39;105439;-65
2021/07/19 10:00:26;;;;;;;24.73;13.23;;;;;;;;;;3547790;39;107384;-64
2021/07/19 10:02:58;;;;;;;21.33;12.85;;;;;;;;;;3549102;39;107371;-63
2021/07/19 10:05:27;;;;;;;25.02;13.73;;;;;;;;;;3547851;39;105395;-66
2021/07/19 10:07:56;;;;;;;27.20;14.20;;;;;;;;;;3548678;39;106559;-65
2021/07/19 10:10:40;;;;;;;29.75;15.43;;;;;;;;;;3547381;39;106971;-63
2021/07/19 10:13:09;;;;;;;29.95;14.05;;;;;;;;;;3547563;39;107505;-62
2021/07/19 10:15:38;;;;;;;30.13;14.67;;;;;;;;;;3548840;39;105592;-61
2021/07/19 10:18:11;;;;;;;27.65;13.90;;;;;;;;;;3548771;39;105283;-67
2021/07/19 10:20:39;;;;;;;28.75;14.02;;;;;;;;;;3547710;39;105956;-65
2021/07/19 10:23:07;;;;;;;24.15;13.40;;;;;;;;;;3548480;39;107168;-65
2021/07/19 10:25:37;;;;;;;24.45;14.15;;;;;;;;;;3548773;39;105752;-67
2021/07/19 10:28:05;;;;;;;27.87;14.10;;;;;;;;;;3547462;39;105737;-66
2021/07/19 10:30:33;;;;;;;29.20;15.48;;;;;;;;;;3549449;39;106875;-63
2021/07/19 10:33:01;;;;;;;27.05;14.60;;;;;;;;;;3548778;39;107441;-60
2021/07/19 10:35:29;;;;;;;25.55;14.18;;;;;;;;;;3548459;39;105638;-65
2021/07/19 10:38:04;;;;;;;26.55;14.07;;;;;;;;;;3548555;39;105354;-60
2021/07/19 10:40:33;;;;;;;26.88;13.32;;;;;;;;;;3548848;39;106789;-63
2021/07/19 10:43:27;;;;;;;30.00;14.43;;;;;;;;;;3547242;39;107737;-64
2021/07/19 10:45:58;;;;;;;28.00;13.20;;;;;;;;;;3547993;39;105748;-63
2021/07/19 10:48:28;;;;;;;21.60;12.20;;;;;;;;;;3547087;39;105491;-62
2021/07/19 10:51:17;;;;;;;23.50;11.38;;;;;;;;;;3547568;39;106502;-64
2021/07/19 10:53:46;;;;;;;21.10;11.20;;;;;;;;;;3547361;39;107558;-63
2021/07/19 10:56:15;;;;;;;22.75;11.23;;;;;;;;;;3547520;39;105438;-63
2021/07/19 10:58:49;;;;;;;21.60;11.02;;;;;;;;;;3546442;39;105299;-65
2021/07/19 11:01:29;;;;;;;18.88;10.55;;;;;;;;;;3548290;39;107140;-66
2021/07/19 11:04:12;;;;;;;19.27;10.07;;;;;;;;;;3548182;39;107746;-62
2021/07/19 11:06:40;;;;;;;16.30;9.07;;;;;;;;;;3548576;39;105302;-62
2021/07/19 11:09:09;;;;;;;14.85;9.38;;;;;;;;;;3547270;39;105274;-65
2021/07/19 11:11:40;;;;;;;18.58;9.50;;;;;;;;;;3547053;39;106873;-63
2021/07/19 11:14:11;;;;;;;;;;;;;;;;;;3545729;39;107621;-60
2021/07/19 11:16:49;;;;;;;;;;;;;;;;;;3549523;39;130749;-66
2021/07/19 11:19:31;;;;;;;16.15;9.38;;;;;;;;;;3549345;39;129743;-65
2021/07/19 11:22:11;;;;;;;15.35;9.20;;;;;;;;;;3549356;39;106924;-67
2021/07/19 11:24:49;;;;;;;14.47;8.43;;;;;;;;;;3549004;39;107475;-68
2021/07/19 11:27:36;;;;;;;13.65;8.30;;;;;;;;;;3549644;39;105234;-60
2021/07/19 11:30:06;;;;;;;18.60;9.07;;;;;;;;;;3543517;39;105677;-64
2021/07/19 11:32:34;;;;;;;16.80;8.60;;;;;;;;;;3540586;39;106628;-63
2021/07/19 11:35:12;;;;;;;14.77;8.38;;;;;;;;;;3539248;39;107473;-63
2021/07/19 11:37:44;;;;;;;19.13;8.65;;;;;;;;;;3539892;39;105528;-66
2021/07/19 11:40:14;;;;;;;19.00;8.70;;;;;;;;;;3541404;39;105340;-62
2021/07/19 11:42:44;;;;;;;15.70;8.67;;;;;;;;;;3549888;39;106796;-65
2021/07/19 11:45:16;;;;;;;17.48;8.48;;;;;;;;;;3549193;39;107546;-67
2021/07/19 11:47:52;;;;;;;16.63;7.90;;;;;;;;;;3547865;39;105583;-63
2021/07/19 11:50:21;;;;;;;15.57;7.40;;;;;;;;;;3547920;39;106491;-68
2021/07/19 11:52:53;;;;;;;15.10;7.72;;;;;;;;;;3548177;39;108255;-67
2021/07/19 11:55:23;;;;;;;13.90;7.97;;;;;;;;;;3547966;39;107632;-66
2021/07/19 11:57:50;;;;;;;11.93;7.40;;;;;;;;;;3549711;39;105791;-64
2021/07/19 12:00:37;;;;;;;12.40;7.90;;;;;;;;;;3549637;39;105196;-62
2021/07/19 12:03:11;;;;;;;14.40;7.60;;;;;;;;;;3548857;39;106906;-60
2021/07/19 12:05:49;;;;;;;12.13;7.32;;;;;;;;;;3549651;39;107584;-64
2021/07/19 12:08:17;;;;;;;13.00;7.43;;;;;;;;;;3547086;39;105937;-65
2021/07/19 12:10:47;;;;;;;11.00;7.38;;;;;;;;;;3548556;39;105649;-66
2021/07/19 12:13:16;;;;;;;13.85;7.63;;;;;;;;;;3546139;39;106897;-68
2021/07/19 12:15:57;;;;;;;12.10;7.32;;;;;;;;;;3545138;39;107786;-63
2021/07/19 12:18:48;;;;;;;13.20;7.40;;;;;;;;;;3547681;39;105625;-65
2021/07/19 12:21:33;;;;;;;12.25;7.10;;;;;;;;;;3545179;39;105454;-62
2021/07/19 12:24:02;;;;;;;10.85;7.18;;;;;;;;;;3553494;39;107391;-64
2021/07/19 12:26:32;;;;;;;10.45;7.00;;;;;;;;;;3559651;39;107467;-63
2021/07/19 12:29:01;;;;;;;10.52;6.60;;;;;;;;;;3559813;39;105357;-61
2021/07/19 12:31:52;;;;;;;12.48;7.18;;;;;;;;;;3560260;39;105262;-64
2021/07/19 12:34:29;;;;;;;9.32;6.93;;;;;;;;;;3557009;39;106849;-64
2021/07/19 12:36:59;;;;;;;10.23;7.10;;;;;;;;;;3551408;39;107682;-65
2021/07/19 12:39:32;;;;;;;10.00;6.90;;;;;;;;;;3549906;39;105391;-64
2021/07/19 12:42:12;;;;;;;9.43;7.15;;;;;;;;;;3550030;39;105266;-62
2021/07/19 12:44:43;;;;;;;8.73;6.35;;;;;;;;;;3550077;39;107184;-63
2021/07/19 12:47:10;;;;;;;8.48;6.32;;;;;;;;;;3550136;39;107540;-65
2021/07/19 12:49:40;;;;;;;9.32;6.45;;;;;;;;;;3549960;39;105275;-60
2021/07/19 12:52:13;;;;;;;10.05;6.90;;;;;;;;;;3550095;39;105387;-65
2021/07/19 12:55:12;;;;;;;10.80;7.18;;;;;;;;;;3549791;39;107039;-62
2021/07/19 12:57:48;;;;;;;9.98;6.82;;;;;;;;;;3549975;39;107675;-65
2021/07/19 13:00:16;;;;;;;11.43;7.13;;;;;;;;;;3549765;39;105734;-61
2021/07/19 13:02:44;;;;;;;11.05;7.55;;;;;;;;;;3549868;39;105605;-63
2021/07/19 13:05:16;;;;;;;10.00;6.85;;;;;;;;;;3547903;39;106877;-65
2021/07/19 13:07:44;;;;;;;10.38;6.85;;;;;;;;;;3542983;39;108127;-62
2021/07/19 13:10:17;;;;;;;12.85;7.03;;;;;;;;;;3548787;39;105268;-67
2021/07/19 13:12:51;;;;;;;10.00;7.13;;;;;;;;;;3548744;39;105668;-64
2021/07/19 13:15:20;;;;;;;12.23;7.30;;;;;;;;;;3548008;39;106987;-66
2021/07/19 13:17:48;;;;;;;9.93;7.03;;;;;;;;;;3547293;39;107654;-60
2021/07/19 13:20:16;;;;;;;10.90;7.45;;;;;;;;;;3545894;39;105506;-62
2021/07/19 13:22:45;;;;;;;11.13;7.35;;;;;;;;;;3540109;39;105573;-65
2021/07/19 13:25:20;;;;;;;8.35;6.75;;;;;;;;;;3549381;39;106910;-66
2021/07/19 13:27:49;;;;;;;11.57;7.22;;;;;;;;;;3549532;39;108000;-65
2021/07/19 13:30:27;;;;;;;11.27;6.97;;;;;;;;;;3544112;39;105503;-63
2021/07/19 13:32:56;;;;;;;11.02;6.82;;;;;;;;;;3549761;39;105242;-66
2021/07/19 13:35:23;;;;;;;12.68;7.65;;;;;;;;;;3548890;39;106886;-65
2021/07/19 13:37:52;;;;;;;10.00;6.90;;;;;;;;;;3544463;39;107484;-67
2021/07/19 13:40:24;;;;;;;11.27;7.03;;;;;;;;;;3545061;39;107350;-66
2021/07/19 13:43:00;;;;;;;12.88;7.50;;;;;;;;;;3544725;39;106355;-63
2021/07/19 13:45:28;;;;;;;12.02;7.05;;;;;;;;;;3547028;39;106770;-63
2021/07/19 13:47:56;;;;;;;11.57;7.80;;;;;;;;;;3547398;39;107638;-65
2021/07/19 13:50:23;;;;;;;11.75;7.53;;;;;;;;;;3539909;39;105482;-65
2021/07/19 13:52:50;;;;;;;11.90;7.50;;;;;;;;;;3542537;39;105284;-61
2021/07/19 13:55:18;;;;;;;13.57;7.80;;;;;;;;;;3558467;39;107152;-63
2021/07/19 13:57:46;;;;;;;11.95;7.53;;;;;;;;;;3548018;39;106542;-67
2021/07/19 14:00:19;;;;;;;9.02;7.35;;;;;;;;;;3546411;39;105549;-63
2021/07/19 14:02:46;;;;;;;11.80;7.95;;;;;;;;;;3546514;39;105550;-62
2021/07/19 14:05:14;;;;;;;16.13;8.25;;;;;;;;;;3539783;39;107420;-63
2021/07/19 14:07:41;;;;;;;12.05;7.85;;;;;;;;;;3539574;39;107649;-62
2021/07/19 14:10:09;;;;;;;12.38;7.47;;;;;;;;;;3540676;39;105376;-65
2021/07/19 14:12:36;;;;;;;9.90;7.15;;;;;;;;;;3540902;39;106608;-64
2021/07/19 14:15:07;;;;;;;10.77;7.55;;;;;;;;;;3546555;39;106958;-65
2021/07/19 14:17:37;;;;;;;13.25;7.45;;;;;;;;;;3544358;39;107451;-64
2021/07/19 14:20:05;;;;;;;12.70;7.90;;;;;;;;;;3545108;39;105495;-64
2021/07/19 14:22:34;;;;;;;11.10;7.47;;;;;;;;;;3538949;39;105545;-62
2021/07/19 14:25:03;;;;;;;11.67;7.50;;;;;;;;;;3544545;39;106933;-60
2021/07/19 14:27:31;;;;;;;11.30;7.20;;;;;;;;;;3541410;39;107462;-62
2021/07/19 14:29:57;;;;;;;13.13;7.40;;;;;;;;;;3543446;39;106086;-62
2021/07/19 14:32:24;;;;;;;10.32;7.00;;;;;;;;;;3546198;39;105509;-63
2021/07/19 14:34:51;;;;;;;11.02;7.20;;;;;;;;;;3547431;39;106904;-61
2021/07/19 14:37:18;;;;;;;13.18;7.50;;;;;;;;;;3546393;39;108006;-67
2021/07/19 14:39:45;;;;;;;10.35;6.93;;;;;;;;;;3546204;39;105440;-67